Terminal Aerodrome Forecast
Issued by NWS Mt. Holly, NJ

Home | Current Version | Previous Version | Text Only | Print | Product List | Glossary On
Versions: 1 2 3 4 5 6 7 8 9 10 11 12 13 14 15
000
FTUS41 KPHI 290521
TAFABE
TAF
KABE 290521Z 2906/3006 24004KT P6SM BKN050
     FM291400 31005KT P6SM SCT200
     FM291900 34009KT P6SM FEW040
     FM300100 02003KT P6SM SKC=

USA.gov is the U.S. government's official web portal to all federal, state and local government web resources and services.